sensor_id;sensor_type;location;lat;lon;timestamp;P1;durP1;ratioP1;P2;durP2;ratioP2
36185;SDS011;22228;53.222;7.446;2023-06-22T00:01:28;36.07;;;32.47;;
36185;SDS011;22228;53.222;7.446;2023-06-22T00:03:48;41.53;;;37.20;;
36185;SDS011;22228;53.222;7.446;2023-06-22T00:06:09;40.07;;;36.07;;
36185;SDS011;22228;53.222;7.446;2023-06-22T00:08:29;44.57;;;39.83;;
36185;SDS011;22228;53.222;7.446;2023-06-22T00:10:50;43.57;;;39.10;;
36185;SDS011;22228;53.222;7.446;2023-06-22T00:13:12;47.90;;;42.50;;
36185;SDS011;22228;53.222;7.446;2023-06-22T03:02:50;46.37;;;41.37;;
36185;SDS011;22228;53.222;7.446;2023-06-22T03:05:12;55.73;;;47.27;;
36185;SDS011;22228;53.222;7.446;2023-06-22T03:07:34;53.70;;;46.30;;
36185;SDS011;22228;53.222;7.446;2023-06-22T03:10:02;52.40;;;44.63;;
36185;SDS011;22228;53.222;7.446;2023-06-22T03:12:23;48.13;;;42.77;;
36185;SDS011;22228;53.222;7.446;2023-06-22T03:14:53;54.57;;;46.60;;
36185;SDS011;22228;53.222;7.446;2023-06-22T03:17:20;49.87;;;44.40;;
36185;SDS011;22228;53.222;7.446;2023-06-22T03:19:41;51.07;;;45.17;;
36185;SDS011;22228;53.222;7.446;2023-06-22T03:22:02;51.30;;;45.37;;
36185;SDS011;22228;53.222;7.446;2023-06-22T03:24:22;56.37;;;49.80;;
36185;SDS011;22228;53.222;7.446;2023-06-22T03:26:43;47.90;;;42.40;;
36185;SDS011;22228;53.222;7.446;2023-06-22T03:29:05;56.50;;;46.93;;
36185;SDS011;22228;53.222;7.446;2023-06-22T03:31:27;59.27;;;46.27;;
36185;SDS011;22228;53.222;7.446;2023-06-22T03:33:47;50.47;;;43.13;;
36185;SDS011;22228;53.222;7.446;2023-06-22T03:36:09;48.67;;;43.23;;
36185;SDS011;22228;53.222;7.446;2023-06-22T03:38:30;53.27;;;47.47;;
36185;SDS011;22228;53.222;7.446;2023-06-22T03:40:50;51.47;;;44.97;;
36185;SDS011;22228;53.222;7.446;2023-06-22T03:43:11;51.00;;;45.50;;
36185;SDS011;22228;53.222;7.446;2023-06-22T03:45:31;56.47;;;48.50;;
36185;SDS011;22228;53.222;7.446;2023-06-22T03:47:52;55.07;;;47.20;;
36185;SDS011;22228;53.222;7.446;2023-06-22T03:50:13;63.20;;;50.73;;
36185;SDS011;22228;53.222;7.446;2023-06-22T03:52:34;61.87;;;52.17;;
36185;SDS011;22228;53.222;7.446;2023-06-22T03:54:55;57.60;;;49.43;;
36185;SDS011;22228;53.222;7.446;2023-06-22T03:57:15;62.20;;;53.07;;
36185;SDS011;22228;53.222;7.446;2023-06-22T03:59:36;54.73;;;48.27;;
36185;SDS011;22228;53.222;7.446;2023-06-22T04:01:56;55.00;;;48.73;;
36185;SDS011;22228;53.222;7.446;2023-06-22T04:04:16;53.07;;;46.17;;
36185;SDS011;22228;53.222;7.446;2023-06-22T04:06:37;52.27;;;46.13;;
36185;SDS011;22228;53.222;7.446;2023-06-22T04:08:59;53.03;;;45.30;;
36185;SDS011;22228;53.222;7.446;2023-06-22T04:11:19;49.33;;;44.07;;
36185;SDS011;22228;53.222;7.446;2023-06-22T04:13:40;51.13;;;43.27;;
36185;SDS011;22228;53.222;7.446;2023-06-22T04:16:00;48.93;;;43.63;;
36185;SDS011;22228;53.222;7.446;2023-06-22T04:18:21;46.87;;;42.00;;
36185;SDS011;22228;53.222;7.446;2023-06-22T04:20:41;47.20;;;42.27;;
36185;SDS011;22228;53.222;7.446;2023-06-22T04:23:05;45.20;;;40.57;;
36185;SDS011;22228;53.222;7.446;2023-06-22T04:25:27;43.07;;;38.60;;
36185;SDS011;22228;53.222;7.446;2023-06-22T04:27:48;45.90;;;41.00;;
36185;SDS011;22228;53.222;7.446;2023-06-22T04:30:08;45.00;;;40.20;;
36185;SDS011;22228;53.222;7.446;2023-06-22T04:32:29;45.73;;;40.97;;
36185;SDS011;22228;53.222;7.446;2023-06-22T04:34:50;42.47;;;38.00;;
36185;SDS011;22228;53.222;7.446;2023-06-22T04:37:11;41.60;;;37.10;;
36185;SDS011;22228;53.222;7.446;2023-06-22T04:39:34;42.97;;;37.43;;
36185;SDS011;22228;53.222;7.446;2023-06-22T04:41:56;46.53;;;41.63;;
36185;SDS011;22228;53.222;7.446;2023-06-22T04:44:19;46.87;;;41.97;;
36185;SDS011;22228;53.222;7.446;2023-06-22T04:46:43;44.53;;;40.07;;
36185;SDS011;22228;53.222;7.446;2023-06-22T04:49:04;42.00;;;37.70;;
36185;SDS011;22228;53.222;7.446;2023-06-22T04:51:28;39.53;;;35.63;;
36185;SDS011;22228;53.222;7.446;2023-06-22T04:53:49;38.33;;;34.43;;
36185;SDS011;22228;53.222;7.446;2023-06-22T04:56:10;39.03;;;34.93;;
36185;SDS011;22228;53.222;7.446;2023-06-22T04:58:31;35.20;;;31.80;;
36185;SDS011;22228;53.222;7.446;2023-06-22T05:00:52;33.17;;;29.97;;
36185;SDS011;22228;53.222;7.446;2023-06-22T05:03:15;31.63;;;28.63;;
36185;SDS011;22228;53.222;7.446;2023-06-22T05:05:37;31.23;;;28.13;;
36185;SDS011;22228;53.222;7.446;2023-06-22T05:07:57;31.43;;;28.43;;
36185;SDS011;22228;53.222;7.446;2023-06-22T05:10:20;30.97;;;28.10;;
36185;SDS011;22228;53.222;7.446;2023-06-22T05:12:41;28.60;;;25.90;;
36185;SDS011;22228;53.222;7.446;2023-06-22T05:15:03;28.13;;;25.43;;
36185;SDS011;22228;53.222;7.446;2023-06-22T05:17:24;27.80;;;25.20;;
36185;SDS011;22228;53.222;7.446;2023-06-22T05:19:45;26.77;;;24.07;;
36185;SDS011;22228;53.222;7.446;2023-06-22T05:22:06;25.60;;;23.33;;
36185;SDS011;22228;53.222;7.446;2023-06-22T05:24:27;26.90;;;24.33;;
36185;SDS011;22228;53.222;7.446;2023-06-22T05:26:47;25.47;;;23.23;;
36185;SDS011;22228;53.222;7.446;2023-06-22T05:29:08;23.87;;;21.60;;
36185;SDS011;22228;53.222;7.446;2023-06-22T05:31:29;25.53;;;23.13;;
36185;SDS011;22228;53.222;7.446;2023-06-22T05:33:51;26.03;;;23.47;;
36185;SDS011;22228;53.222;7.446;2023-06-22T05:36:12;25.20;;;22.80;;
36185;SDS011;22228;53.222;7.446;2023-06-22T05:38:33;23.20;;;21.00;;
36185;SDS011;22228;53.222;7.446;2023-06-22T05:40:53;22.43;;;20.23;;
36185;SDS011;22228;53.222;7.446;2023-06-22T05:43:14;23.43;;;21.40;;
36185;SDS011;22228;53.222;7.446;2023-06-22T05:45:35;22.73;;;20.73;;
36185;SDS011;22228;53.222;7.446;2023-06-22T05:47:57;22.33;;;20.33;;
36185;SDS011;22228;53.222;7.446;2023-06-22T05:50:17;27.50;;;24.90;;
36185;SDS011;22228;53.222;7.446;2023-06-22T05:52:38;25.37;;;23.07;;
36185;SDS011;22228;53.222;7.446;2023-06-22T05:54:58;21.80;;;19.70;;
36185;SDS011;22228;53.222;7.446;2023-06-22T05:57:19;20.50;;;18.50;;
36185;SDS011;22228;53.222;7.446;2023-06-22T05:59:40;17.13;;;15.63;;
36185;SDS011;22228;53.222;7.446;2023-06-22T06:02:01;16.30;;;14.73;;
36185;SDS011;22228;53.222;7.446;2023-06-22T06:04:23;15.93;;;14.43;;
36185;SDS011;22228;53.222;7.446;2023-06-22T06:06:44;16.23;;;14.63;;
36185;SDS011;22228;53.222;7.446;2023-06-22T06:09:05;14.20;;;12.80;;
36185;SDS011;22228;53.222;7.446;2023-06-22T06:11:26;15.73;;;14.17;;
36185;SDS011;22228;53.222;7.446;2023-06-22T06:13:46;13.93;;;12.53;;
36185;SDS011;22228;53.222;7.446;2023-06-22T06:16:07;14.53;;;11.97;;
36185;SDS011;22228;53.222;7.446;2023-06-22T06:18:28;12.93;;;11.73;;
36185;SDS011;22228;53.222;7.446;2023-06-22T06:20:49;11.13;;;10.23;;
36185;SDS011;22228;53.222;7.446;2023-06-22T06:23:10;12.77;;;11.57;;
36185;SDS011;22228;53.222;7.446;2023-06-22T06:25:31;11.20;;;10.20;;
36185;SDS011;22228;53.222;7.446;2023-06-22T06:27:51;11.20;;;10.13;;
36185;SDS011;22228;53.222;7.446;2023-06-22T06:30:14;9.73;;;8.87;;
36185;SDS011;22228;53.222;7.446;2023-06-22T06:32:35;9.17;;;8.27;;
36185;SDS011;22228;53.222;7.446;2023-06-22T06:34:55;8.23;;;7.47;;
36185;SDS011;22228;53.222;7.446;2023-06-22T06:37:17;7.40;;;6.80;;
36185;SDS011;22228;53.222;7.446;2023-06-22T06:39:38;8.20;;;7.40;;
36185;SDS011;22228;53.222;7.446;2023-06-22T06:41:58;8.60;;;8.00;;
36185;SDS011;22228;53.222;7.446;2023-06-22T06:44:19;8.60;;;7.83;;
36185;SDS011;22228;53.222;7.446;2023-06-22T06:46:40;10.43;;;9.60;;
36185;SDS011;22228;53.222;7.446;2023-06-22T06:49:00;11.33;;;10.03;;
36185;SDS011;22228;53.222;7.446;2023-06-22T06:51:21;13.30;;;12.10;;
36185;SDS011;22228;53.222;7.446;2023-06-22T06:53:43;13.97;;;12.53;;
36185;SDS011;22228;53.222;7.446;2023-06-22T06:58:56;13.90;;;12.67;;
36185;SDS011;22228;53.222;7.446;2023-06-22T07:01:18;12.27;;;11.17;;
36185;SDS011;22228;53.222;7.446;2023-06-22T07:04:36;11.00;;;9.97;;
36185;SDS011;22228;53.222;7.446;2023-06-22T07:06:58;11.77;;;10.77;;
36185;SDS011;22228;53.222;7.446;2023-06-22T07:09:22;14.07;;;12.80;;
36185;SDS011;22228;53.222;7.446;2023-06-22T07:11:43;12.67;;;11.50;;
36185;SDS011;22228;53.222;7.446;2023-06-22T07:14:03;13.20;;;12.20;;
36185;SDS011;22228;53.222;7.446;2023-06-22T07:16:24;13.70;;;12.47;;
36185;SDS011;22228;53.222;7.446;2023-06-22T07:18:46;14.03;;;12.67;;
36185;SDS011;22228;53.222;7.446;2023-06-22T07:21:07;11.40;;;10.30;;
36185;SDS011;22228;53.222;7.446;2023-06-22T07:23:27;11.07;;;10.17;;
36185;SDS011;22228;53.222;7.446;2023-06-22T07:25:49;12.57;;;11.47;;
36185;SDS011;22228;53.222;7.446;2023-06-22T07:28:09;13.03;;;11.83;;
36185;SDS011;22228;53.222;7.446;2023-06-22T07:30:30;12.80;;;11.80;;
36185;SDS011;22228;53.222;7.446;2023-06-22T07:32:52;13.07;;;11.97;;
36185;SDS011;22228;53.222;7.446;2023-06-22T07:35:13;11.97;;;10.83;;
36185;SDS011;22228;53.222;7.446;2023-06-22T07:37:35;10.93;;;9.80;;
36185;SDS011;22228;53.222;7.446;2023-06-22T07:39:55;11.00;;;10.00;;
36185;SDS011;22228;53.222;7.446;2023-06-22T07:42:18;8.73;;;7.90;;
36185;SDS011;22228;53.222;7.446;2023-06-22T07:44:39;10.97;;;10.00;;
36185;SDS011;22228;53.222;7.446;2023-06-22T07:46:59;10.07;;;9.17;;
36185;SDS011;22228;53.222;7.446;2023-06-22T07:49:20;11.63;;;10.63;;
36185;SDS011;22228;53.222;7.446;2023-06-22T07:51:40;10.80;;;9.90;;
36185;SDS011;22228;53.222;7.446;2023-06-22T07:54:01;8.47;;;7.70;;
36185;SDS011;22228;53.222;7.446;2023-06-22T07:56:22;9.33;;;8.43;;
36185;SDS011;22228;53.222;7.446;2023-06-22T07:58:44;9.93;;;9.03;;
36185;SDS011;22228;53.222;7.446;2023-06-22T08:01:05;9.13;;;8.30;;
36185;SDS011;22228;53.222;7.446;2023-06-22T08:03:25;10.73;;;9.70;;
36185;SDS011;22228;53.222;7.446;2023-06-22T08:05:46;11.57;;;10.47;;
36185;SDS011;22228;53.222;7.446;2023-06-22T08:08:07;8.87;;;8.07;;
36185;SDS011;22228;53.222;7.446;2023-06-22T08:10:28;8.27;;;7.47;;
36185;SDS011;22228;53.222;7.446;2023-06-22T08:12:48;8.03;;;7.43;;
36185;SDS011;22228;53.222;7.446;2023-06-22T08:15:11;8.77;;;7.97;;
36185;SDS011;22228;53.222;7.446;2023-06-22T08:17:32;7.20;;;6.60;;
36185;SDS011;22228;53.222;7.446;2023-06-22T08:19:52;8.53;;;7.57;;
36185;SDS011;22228;53.222;7.446;2023-06-22T08:22:13;8.47;;;7.60;;
36185;SDS011;22228;53.222;7.446;2023-06-22T08:24:34;8.20;;;7.03;;
36185;SDS011;22228;53.222;7.446;2023-06-22T08:26:54;9.37;;;8.43;;
36185;SDS011;22228;53.222;7.446;2023-06-22T08:29:15;7.70;;;7.00;;
36185;SDS011;22228;53.222;7.446;2023-06-22T08:31:37;8.70;;;7.90;;
36185;SDS011;22228;53.222;7.446;2023-06-22T08:33:57;8.60;;;7.87;;
36185;SDS011;22228;53.222;7.446;2023-06-22T08:36:17;8.03;;;7.30;;
36185;SDS011;22228;53.222;7.446;2023-06-22T08:38:38;8.53;;;7.30;;
36185;SDS011;22228;53.222;7.446;2023-06-22T08:40:58;7.23;;;6.63;;
36185;SDS011;22228;53.222;7.446;2023-06-22T08:43:19;6.57;;;5.97;;
36185;SDS011;22228;53.222;7.446;2023-06-22T08:45:40;7.37;;;6.67;;
36185;SDS011;22228;53.222;7.446;2023-06-22T08:48:02;11.70;;;6.40;;
36185;SDS011;22228;53.222;7.446;2023-06-22T08:50:23;9.63;;;6.17;;
36185;SDS011;22228;53.222;7.446;2023-06-22T08:52:43;8.10;;;6.47;;
36185;SDS011;22228;53.222;7.446;2023-06-22T08:55:04;6.87;;;6.23;;
36185;SDS011;22228;53.222;7.446;2023-06-22T08:57:25;7.23;;;6.53;;
36185;SDS011;22228;53.222;7.446;2023-06-22T08:59:46;7.63;;;6.97;;
36185;SDS011;22228;53.222;7.446;2023-06-22T09:02:06;8.20;;;7.40;;
36185;SDS011;22228;53.222;7.446;2023-06-22T09:04:28;8.13;;;6.77;;
36185;SDS011;22228;53.222;7.446;2023-06-22T09:06:53;10.53;;;8.40;;
36185;SDS011;22228;53.222;7.446;2023-06-22T09:09:13;7.13;;;6.27;;
36185;SDS011;22228;53.222;7.446;2023-06-22T09:11:35;7.60;;;6.93;;
36185;SDS011;22228;53.222;7.446;2023-06-22T09:13:55;8.40;;;7.50;;
36185;SDS011;22228;53.222;7.446;2023-06-22T09:16:16;7.73;;;7.00;;
36185;SDS011;22228;53.222;7.446;2023-06-22T09:18:37;7.10;;;6.57;;
36185;SDS011;22228;53.222;7.446;2023-06-22T09:20:59;8.47;;;7.77;;
36185;SDS011;22228;53.222;7.446;2023-06-22T09:23:19;7.13;;;6.53;;
36185;SDS011;22228;53.222;7.446;2023-06-22T09:25:40;9.47;;;8.67;;
36185;SDS011;22228;53.222;7.446;2023-06-22T09:28:00;8.03;;;7.23;;
36185;SDS011;22228;53.222;7.446;2023-06-22T09:30:21;6.43;;;5.90;;
36185;SDS011;22228;53.222;7.446;2023-06-22T09:32:42;7.73;;;6.97;;
36185;SDS011;22228;53.222;7.446;2023-06-22T09:35:03;8.40;;;7.37;;
36185;SDS011;22228;53.222;7.446;2023-06-22T09:37:27;8.53;;;7.00;;
36185;SDS011;22228;53.222;7.446;2023-06-22T09:39:47;7.97;;;6.87;;
36185;SDS011;22228;53.222;7.446;2023-06-22T09:42:08;7.53;;;6.87;;
36185;SDS011;22228;53.222;7.446;2023-06-22T09:44:28;7.37;;;6.67;;
36185;SDS011;22228;53.222;7.446;2023-06-22T09:46:49;6.73;;;6.13;;
36185;SDS011;22228;53.222;7.446;2023-06-22T09:49:10;6.50;;;5.90;;
36185;SDS011;22228;53.222;7.446;2023-06-22T09:51:30;6.00;;;5.50;;
36185;SDS011;22228;53.222;7.446;2023-06-22T09:53:52;6.67;;;6.17;;
36185;SDS011;22228;53.222;7.446;2023-06-22T09:56:13;6.20;;;5.67;;
36185;SDS011;22228;53.222;7.446;2023-06-22T09:58:34;6.00;;;5.23;;
36185;SDS011;22228;53.222;7.446;2023-06-22T10:00:55;5.27;;;4.77;;
36185;SDS011;22228;53.222;7.446;2023-06-22T10:03:15;6.53;;;6.03;;
36185;SDS011;22228;53.222;7.446;2023-06-22T10:05:36;4.83;;;4.40;;
36185;SDS011;22228;53.222;7.446;2023-06-22T10:07:56;5.50;;;4.97;;
36185;SDS011;22228;53.222;7.446;2023-06-22T10:10:18;5.40;;;4.90;;
36185;SDS011;22228;53.222;7.446;2023-06-22T10:12:41;5.83;;;5.23;;
36185;SDS011;22228;53.222;7.446;2023-06-22T10:15:03;5.33;;;4.83;;
36185;SDS011;22228;53.222;7.446;2023-06-22T10:17:24;6.50;;;5.83;;
36185;SDS011;22228;53.222;7.446;2023-06-22T10:19:45;6.57;;;6.07;;
36185;SDS011;22228;53.222;7.446;2023-06-22T10:22:06;6.50;;;5.90;;
36185;SDS011;22228;53.222;7.446;2023-06-22T10:24:26;5.50;;;5.17;;
36185;SDS011;22228;53.222;7.446;2023-06-22T10:26:48;6.70;;;6.20;;
36185;SDS011;22228;53.222;7.446;2023-06-22T10:29:08;6.00;;;5.50;;
36185;SDS011;22228;53.222;7.446;2023-06-22T10:31:29;5.03;;;4.63;;
36185;SDS011;22228;53.222;7.446;2023-06-22T10:33:49;4.43;;;4.03;;
36185;SDS011;22228;53.222;7.446;2023-06-22T10:36:10;5.37;;;4.97;;
36185;SDS011;22228;53.222;7.446;2023-06-22T10:38:31;3.93;;;3.63;;
36185;SDS011;22228;53.222;7.446;2023-06-22T10:40:52;8.20;;;6.00;;
36185;SDS011;22228;53.222;7.446;2023-06-22T10:43:14;9.93;;;5.20;;
36185;SDS011;22228;53.222;7.446;2023-06-22T10:45:34;5.83;;;5.30;;
36185;SDS011;22228;53.222;7.446;2023-06-22T10:47:55;5.80;;;5.30;;
36185;SDS011;22228;53.222;7.446;2023-06-22T10:50:15;4.77;;;4.20;;
36185;SDS011;22228;53.222;7.446;2023-06-22T10:52:36;5.93;;;5.43;;
36185;SDS011;22228;53.222;7.446;2023-06-22T10:54:57;4.13;;;3.73;;
36185;SDS011;22228;53.222;7.446;2023-06-22T10:57:18;5.20;;;4.80;;
36185;SDS011;22228;53.222;7.446;2023-06-22T10:59:39;4.10;;;3.80;;
36185;SDS011;22228;53.222;7.446;2023-06-22T11:02:00;4.20;;;3.80;;
36185;SDS011;22228;53.222;7.446;2023-06-22T11:04:21;4.50;;;4.03;;
36185;SDS011;22228;53.222;7.446;2023-06-22T11:06:42;3.93;;;3.73;;
36185;SDS011;22228;53.222;7.446;2023-06-22T11:09:02;5.40;;;4.90;;
36185;SDS011;22228;53.222;7.446;2023-06-22T11:11:23;5.60;;;5.20;;
36185;SDS011;22228;53.222;7.446;2023-06-22T11:13:43;6.70;;;6.20;;
36185;SDS011;22228;53.222;7.446;2023-06-22T11:16:05;7.10;;;6.40;;
36185;SDS011;22228;53.222;7.446;2023-06-22T11:18:26;4.87;;;4.37;;
36185;SDS011;22228;53.222;7.446;2023-06-22T11:20:47;7.77;;;6.97;;
36185;SDS011;22228;53.222;7.446;2023-06-22T11:23:08;5.30;;;4.80;;
36185;SDS011;22228;53.222;7.446;2023-06-22T11:25:29;5.10;;;4.67;;
36185;SDS011;22228;53.222;7.446;2023-06-22T11:27:50;6.77;;;5.63;;
36185;SDS011;22228;53.222;7.446;2023-06-22T11:30:12;5.50;;;5.10;;
36185;SDS011;22228;53.222;7.446;2023-06-22T11:32:34;6.30;;;5.80;;
36185;SDS011;22228;53.222;7.446;2023-06-22T11:34:55;5.13;;;4.80;;
36185;SDS011;22228;53.222;7.446;2023-06-22T11:37:16;8.83;;;4.73;;
36185;SDS011;22228;53.222;7.446;2023-06-22T11:39:36;4.33;;;4.03;;
36185;SDS011;22228;53.222;7.446;2023-06-22T11:41:57;5.03;;;4.57;;
36185;SDS011;22228;53.222;7.446;2023-06-22T11:44:17;7.83;;;5.30;;
36185;SDS011;22228;53.222;7.446;2023-06-22T11:46:38;4.40;;;3.47;;
36185;SDS011;22228;53.222;7.446;2023-06-22T11:49:00;4.87;;;4.47;;
36185;SDS011;22228;53.222;7.446;2023-06-22T11:51:21;4.53;;;4.23;;
36185;SDS011;22228;53.222;7.446;2023-06-22T11:53:41;4.50;;;3.07;;
36185;SDS011;22228;53.222;7.446;2023-06-22T11:56:02;4.37;;;3.10;;
36185;SDS011;22228;53.222;7.446;2023-06-22T11:58:22;3.40;;;3.20;;
36185;SDS011;22228;53.222;7.446;2023-06-22T12:00:43;4.50;;;4.17;;
36185;SDS011;22228;53.222;7.446;2023-06-22T12:03:03;3.70;;;3.40;;
36185;SDS011;22228;53.222;7.446;2023-06-22T12:05:25;7.57;;;4.77;;
36185;SDS011;22228;53.222;7.446;2023-06-22T12:07:46;3.87;;;3.43;;
36185;SDS011;22228;53.222;7.446;2023-06-22T12:10:07;5.03;;;4.53;;
36185;SDS011;22228;53.222;7.446;2023-06-22T12:12:27;4.33;;;3.93;;
36185;SDS011;22228;53.222;7.446;2023-06-22T12:14:48;3.67;;;3.40;;
36185;SDS011;22228;53.222;7.446;2023-06-22T12:17:08;4.80;;;4.50;;
36185;SDS011;22228;53.222;7.446;2023-06-22T12:19:29;4.73;;;4.07;;
36185;SDS011;22228;53.222;7.446;2023-06-22T12:21:51;5.93;;;4.53;;
36185;SDS011;22228;53.222;7.446;2023-06-22T12:24:12;3.80;;;3.50;;
36185;SDS011;22228;53.222;7.446;2023-06-22T12:26:32;4.63;;;4.23;;
36185;SDS011;22228;53.222;7.446;2023-06-22T12:28:53;4.37;;;4.07;;
36185;SDS011;22228;53.222;7.446;2023-06-22T12:31:13;4.27;;;3.83;;
36185;SDS011;22228;53.222;7.446;2023-06-22T12:33:34;3.63;;;3.43;;
36185;SDS011;22228;53.222;7.446;2023-06-22T12:35:54;5.67;;;5.10;;
36185;SDS011;22228;53.222;7.446;2023-06-22T12:38:16;7.17;;;6.57;;
36185;SDS011;22228;53.222;7.446;2023-06-22T12:40:36;7.53;;;5.87;;
36185;SDS011;22228;53.222;7.446;2023-06-22T12:42:57;5.53;;;5.03;;
36185;SDS011;22228;53.222;7.446;2023-06-22T12:45:17;5.00;;;4.60;;
36185;SDS011;22228;53.222;7.446;2023-06-22T12:47:39;5.80;;;5.40;;
36185;SDS011;22228;53.222;7.446;2023-06-22T12:50:00;5.20;;;4.70;;
36185;SDS011;22228;53.222;7.446;2023-06-22T12:52:20;6.47;;;5.97;;
36185;SDS011;22228;53.222;7.446;2023-06-22T12:54:42;4.80;;;3.93;;
36185;SDS011;22228;53.222;7.446;2023-06-22T12:57:03;6.50;;;5.10;;
36185;SDS011;22228;53.222;7.446;2023-06-22T12:59:24;5.67;;;4.00;;
36185;SDS011;22228;53.222;7.446;2023-06-22T13:01:44;5.17;;;3.97;;
36185;SDS011;22228;53.222;7.446;2023-06-22T13:04:05;4.77;;;4.37;;
36185;SDS011;22228;53.222;7.446;2023-06-22T13:06:25;4.40;;;4.00;;
36185;SDS011;22228;53.222;7.446;2023-06-22T13:08:46;3.70;;;3.33;;
36185;SDS011;22228;53.222;7.446;2023-06-22T13:11:08;4.30;;;3.90;;
36185;SDS011;22228;53.222;7.446;2023-06-22T13:13:28;5.83;;;5.30;;
36185;SDS011;22228;53.222;7.446;2023-06-22T13:15:49;5.23;;;4.80;;
36185;SDS011;22228;53.222;7.446;2023-06-22T13:18:09;6.27;;;5.27;;
36185;SDS011;22228;53.222;7.446;2023-06-22T13:20:30;6.27;;;5.87;;
36185;SDS011;22228;53.222;7.446;2023-06-22T13:22:50;6.10;;;5.60;;
36185;SDS011;22228;53.222;7.446;2023-06-22T13:25:10;7.77;;;6.33;;
36185;SDS011;22228;53.222;7.446;2023-06-22T13:27:33;7.23;;;6.53;;
36185;SDS011;22228;53.222;7.446;2023-06-22T13:29:53;5.57;;;5.07;;
36185;SDS011;22228;53.222;7.446;2023-06-22T13:32:14;7.40;;;6.70;;
36185;SDS011;22228;53.222;7.446;2023-06-22T13:34:35;8.23;;;7.13;;
36185;SDS011;22228;53.222;7.446;2023-06-22T13:36:55;6.93;;;5.87;;
36185;SDS011;22228;53.222;7.446;2023-06-22T13:39:16;17.23;;;7.87;;
36185;SDS011;22228;53.222;7.446;2023-06-22T13:41:36;15.97;;;6.63;;
36185;SDS011;22228;53.222;7.446;2023-06-22T13:43:58;8.80;;;6.23;;
36185;SDS011;22228;53.222;7.446;2023-06-22T13:46:19;43.03;;;39.53;;
36185;SDS011;22228;53.222;7.446;2023-06-22T13:48:39;9.30;;;8.40;;
36185;SDS011;22228;53.222;7.446;2023-06-22T13:51:00;7.37;;;6.67;;
36185;SDS011;22228;53.222;7.446;2023-06-22T13:53:20;8.67;;;6.73;;
36185;SDS011;22228;53.222;7.446;2023-06-22T13:55:41;7.97;;;6.10;;
36185;SDS011;22228;53.222;7.446;2023-06-22T13:58:02;6.80;;;6.13;;
36185;SDS011;22228;53.222;7.446;2023-06-22T14:00:26;6.30;;;5.10;;
36185;SDS011;22228;53.222;7.446;2023-06-22T14:02:47;5.37;;;4.93;;
36185;SDS011;22228;53.222;7.446;2023-06-22T14:05:08;6.60;;;5.23;;
36185;SDS011;22228;53.222;7.446;2023-06-22T14:07:29;7.60;;;6.87;;
36185;SDS011;22228;53.222;7.446;2023-06-22T14:09:50;5.97;;;5.50;;
36185;SDS011;22228;53.222;7.446;2023-06-22T14:12:11;6.27;;;5.70;;
36185;SDS011;22228;53.222;7.446;2023-06-22T14:14:31;6.47;;;5.93;;
36185;SDS011;22228;53.222;7.446;2023-06-22T14:16:53;6.77;;;6.00;;
36185;SDS011;22228;53.222;7.446;2023-06-22T14:19:14;8.27;;;6.30;;
36185;SDS011;22228;53.222;7.446;2023-06-22T14:21:36;8.33;;;6.13;;
36185;SDS011;22228;53.222;7.446;2023-06-22T14:23:57;7.00;;;5.47;;
36185;SDS011;22228;53.222;7.446;2023-06-22T14:26:17;8.63;;;5.73;;
36185;SDS011;22228;53.222;7.446;2023-06-22T14:28:38;5.13;;;4.00;;
36185;SDS011;22228;53.222;7.446;2023-06-22T14:30:58;8.40;;;6.57;;
36185;SDS011;22228;53.222;7.446;2023-06-22T14:33:20;7.10;;;6.43;;
36185;SDS011;22228;53.222;7.446;2023-06-22T14:35:41;10.47;;;6.27;;
36185;SDS011;22228;53.222;7.446;2023-06-22T14:38:01;7.57;;;4.97;;
36185;SDS011;22228;53.222;7.446;2023-06-22T14:40:22;7.73;;;6.93;;
36185;SDS011;22228;53.222;7.446;2023-06-22T14:42:43;5.80;;;5.30;;
36185;SDS011;22228;53.222;7.446;2023-06-22T14:45:03;5.13;;;4.23;;
36185;SDS011;22228;53.222;7.446;2023-06-22T14:47:25;4.90;;;4.50;;
36185;SDS011;22228;53.222;7.446;2023-06-22T14:49:48;7.23;;;5.60;;
36185;SDS011;22228;53.222;7.446;2023-06-22T14:52:12;9.13;;;7.60;;
36185;SDS011;22228;53.222;7.446;2023-06-22T14:54:33;6.47;;;5.40;;
36185;SDS011;22228;53.222;7.446;2023-06-22T14:56:53;8.97;;;6.60;;
36185;SDS011;22228;53.222;7.446;2023-06-22T14:59:14;7.57;;;6.83;;
36185;SDS011;22228;53.222;7.446;2023-06-22T15:01:36;6.30;;;5.57;;
36185;SDS011;22228;53.222;7.446;2023-06-22T15:03:59;5.17;;;3.47;;
36185;SDS011;22228;53.222;7.446;2023-06-22T15:06:21;5.37;;;4.50;;
36185;SDS011;22228;53.222;7.446;2023-06-22T15:08:42;4.93;;;4.40;;
36185;SDS011;22228;53.222;7.446;2023-06-22T15:11:03;3.50;;;3.20;;
36185;SDS011;22228;53.222;7.446;2023-06-22T15:13:26;5.83;;;4.47;;
36185;SDS011;22228;53.222;7.446;2023-06-22T15:15:48;8.73;;;3.73;;
36185;SDS011;22228;53.222;7.446;2023-06-22T15:18:08;9.53;;;6.47;;
36185;SDS011;22228;53.222;7.446;2023-06-22T15:20:29;4.63;;;3.60;;
36185;SDS011;22228;53.222;7.446;2023-06-22T15:22:51;4.23;;;2.90;;
36185;SDS011;22228;53.222;7.446;2023-06-22T15:25:11;4.50;;;2.20;;
36185;SDS011;22228;53.222;7.446;2023-06-22T15:27:32;2.70;;;2.40;;
36185;SDS011;22228;53.222;7.446;2023-06-22T15:29:52;3.93;;;2.60;;
36185;SDS011;22228;53.222;7.446;2023-06-22T15:32:13;6.30;;;4.47;;
36185;SDS011;22228;53.222;7.446;2023-06-22T15:34:33;5.30;;;3.00;;
36185;SDS011;22228;53.222;7.446;2023-06-22T15:36:54;7.57;;;5.00;;
36185;SDS011;22228;53.222;7.446;2023-06-22T15:39:15;6.83;;;5.10;;
36185;SDS011;22228;53.222;7.446;2023-06-22T15:41:38;8.13;;;4.97;;
36185;SDS011;22228;53.222;7.446;2023-06-22T15:43:59;5.97;;;4.77;;
36185;SDS011;22228;53.222;7.446;2023-06-22T15:46:20;7.93;;;4.17;;
36185;SDS011;22228;53.222;7.446;2023-06-22T15:48:40;8.70;;;5.43;;
36185;SDS011;22228;53.222;7.446;2023-06-22T15:51:01;4.90;;;3.13;;
36185;SDS011;22228;53.222;7.446;2023-06-22T15:53:22;3.63;;;2.80;;
36185;SDS011;22228;53.222;7.446;2023-06-22T15:55:45;3.37;;;1.93;;
36185;SDS011;22228;53.222;7.446;2023-06-22T15:58:06;4.53;;;2.27;;
36185;SDS011;22228;53.222;7.446;2023-06-22T16:00:27;2.57;;;1.50;;
36185;SDS011;22228;53.222;7.446;2023-06-22T16:02:48;4.47;;;1.83;;
36185;SDS011;22228;53.222;7.446;2023-06-22T16:05:09;3.83;;;1.40;;
36185;SDS011;22228;53.222;7.446;2023-06-22T16:07:29;2.70;;;1.33;;
36185;SDS011;22228;53.222;7.446;2023-06-22T16:09:50;2.40;;;1.10;;
36185;SDS011;22228;53.222;7.446;2023-06-22T16:12:12;2.50;;;1.30;;
36185;SDS011;22228;53.222;7.446;2023-06-22T16:14:32;2.33;;;1.13;;
36185;SDS011;22228;53.222;7.446;2023-06-22T16:16:53;2.83;;;1.30;;
36185;SDS011;22228;53.222;7.446;2023-06-22T16:19:13;2.90;;;1.30;;
36185;SDS011;22228;53.222;7.446;2023-06-22T16:21:34;1.70;;;1.30;;
36185;SDS011;22228;53.222;7.446;2023-06-22T16:23:54;2.20;;;1.57;;
36185;SDS011;22228;53.222;7.446;2023-06-22T16:26:15;3.87;;;1.97;;
36185;SDS011;22228;53.222;7.446;2023-06-22T16:28:37;4.00;;;1.33;;
36185;SDS011;22228;53.222;7.446;2023-06-22T16:30:57;2.60;;;1.90;;
36185;SDS011;22228;53.222;7.446;2023-06-22T16:33:18;1.60;;;1.50;;
36185;SDS011;22228;53.222;7.446;2023-06-22T16:35:38;3.23;;;1.67;;
36185;SDS011;22228;53.222;7.446;2023-06-22T16:37:59;2.40;;;1.33;;
36185;SDS011;22228;53.222;7.446;2023-06-22T16:40:19;2.10;;;1.80;;
36185;SDS011;22228;53.222;7.446;2023-06-22T16:42:40;1.83;;;1.73;;
36185;SDS011;22228;53.222;7.446;2023-06-22T16:45:02;2.93;;;2.37;;
36185;SDS011;22228;53.222;7.446;2023-06-22T16:47:23;3.73;;;2.47;;
36185;SDS011;22228;53.222;7.446;2023-06-22T16:52:25;5.13;;;3.30;;
36185;SDS011;22228;53.222;7.446;2023-06-22T16:54:46;6.20;;;3.70;;